sensor_id;sensor_type;location;lat;lon;timestamp;P1;durP1;ratioP1;P2;durP2;ratioP2
2874;SDS011;1445;52.600;13.328;2023-03-19T00:02:01;30.90;;;19.40;;
2874;SDS011;1445;52.600;13.328;2023-03-19T00:04:26;27.58;;;19.38;;
2874;SDS011;1445;52.600;13.328;2023-03-19T00:06:52;26.30;;;17.23;;
2874;SDS011;1445;52.600;13.328;2023-03-19T00:09:19;21.60;;;15.75;;
2874;SDS011;1445;52.600;13.328;2023-03-19T00:11:45;20.23;;;14.50;;
2874;SDS011;1445;52.600;13.328;2023-03-19T00:14:11;22.05;;;15.35;;
2874;SDS011;1445;52.600;13.328;2023-03-19T00:16:37;23.15;;;15.48;;
2874;SDS011;1445;52.600;13.328;2023-03-19T00:19:02;24.23;;;16.67;;
2874;SDS011;1445;52.600;13.328;2023-03-19T00:21:28;20.42;;;15.35;;
2874;SDS011;1445;52.600;13.328;2023-03-19T00:23:55;22.17;;;15.73;;
2874;SDS011;1445;52.600;13.328;2023-03-19T00:26:29;23.48;;;16.13;;
2874;SDS011;1445;52.600;13.328;2023-03-19T00:28:56;19.63;;;14.55;;
2874;SDS011;1445;52.600;13.328;2023-03-19T00:31:22;21.38;;;14.68;;
2874;SDS011;1445;52.600;13.328;2023-03-19T00:33:48;20.38;;;15.02;;
2874;SDS011;1445;52.600;13.328;2023-03-19T00:36:13;26.58;;;15.75;;
2874;SDS011;1445;52.600;13.328;2023-03-19T00:38:40;21.85;;;15.05;;
2874;SDS011;1445;52.600;13.328;2023-03-19T00:41:07;19.92;;;14.50;;
2874;SDS011;1445;52.600;13.328;2023-03-19T00:43:32;23.38;;;16.65;;
2874;SDS011;1445;52.600;13.328;2023-03-19T00:45:58;19.95;;;14.02;;
2874;SDS011;1445;52.600;13.328;2023-03-19T00:48:23;21.58;;;15.05;;
2874;SDS011;1445;52.600;13.328;2023-03-19T00:50:52;20.40;;;14.57;;
2874;SDS011;1445;52.600;13.328;2023-03-19T00:53:18;23.42;;;14.70;;
2874;SDS011;1445;52.600;13.328;2023-03-19T00:55:43;21.20;;;14.35;;
2874;SDS011;1445;52.600;13.328;2023-03-19T00:58:09;19.98;;;13.85;;
2874;SDS011;1445;52.600;13.328;2023-03-19T01:00:35;19.15;;;13.65;;
2874;SDS011;1445;52.600;13.328;2023-03-19T01:03:03;21.67;;;12.98;;
2874;SDS011;1445;52.600;13.328;2023-03-19T01:05:30;18.30;;;13.20;;
2874;SDS011;1445;52.600;13.328;2023-03-19T01:07:56;19.80;;;14.02;;
2874;SDS011;1445;52.600;13.328;2023-03-19T01:10:22;24.20;;;14.18;;
2874;SDS011;1445;52.600;13.328;2023-03-19T01:12:48;21.05;;;13.80;;
2874;SDS011;1445;52.600;13.328;2023-03-19T01:15:15;21.65;;;14.25;;
2874;SDS011;1445;52.600;13.328;2023-03-19T01:17:41;20.92;;;14.57;;
2874;SDS011;1445;52.600;13.328;2023-03-19T01:20:07;18.98;;;13.68;;
2874;SDS011;1445;52.600;13.328;2023-03-19T01:22:40;21.15;;;14.70;;
2874;SDS011;1445;52.600;13.328;2023-03-19T01:25:06;25.92;;;14.35;;
2874;SDS011;1445;52.600;13.328;2023-03-19T01:27:33;21.42;;;14.52;;
2874;SDS011;1445;52.600;13.328;2023-03-19T01:29:58;18.75;;;12.82;;
2874;SDS011;1445;52.600;13.328;2023-03-19T01:32:24;20.70;;;14.82;;
2874;SDS011;1445;52.600;13.328;2023-03-19T01:34:49;24.13;;;16.23;;
2874;SDS011;1445;52.600;13.328;2023-03-19T01:37:15;23.48;;;16.35;;
2874;SDS011;1445;52.600;13.328;2023-03-19T01:39:40;27.30;;;17.65;;
2874;SDS011;1445;52.600;13.328;2023-03-19T01:42:05;20.40;;;14.52;;
2874;SDS011;1445;52.600;13.328;2023-03-19T01:44:33;22.05;;;15.93;;
2874;SDS011;1445;52.600;13.328;2023-03-19T01:47:06;21.02;;;15.45;;
2874;SDS011;1445;52.600;13.328;2023-03-19T01:49:41;27.52;;;19.80;;
2874;SDS011;1445;52.600;13.328;2023-03-19T01:52:09;29.55;;;21.05;;
2874;SDS011;1445;52.600;13.328;2023-03-19T01:54:37;29.17;;;20.38;;
2874;SDS011;1445;52.600;13.328;2023-03-19T01:57:07;23.13;;;17.40;;
2874;SDS011;1445;52.600;13.328;2023-03-19T01:59:36;19.20;;;14.63;;
2874;SDS011;1445;52.600;13.328;2023-03-19T02:02:14;21.10;;;14.57;;
2874;SDS011;1445;52.600;13.328;2023-03-19T02:05:08;18.73;;;12.70;;
2874;SDS011;1445;52.600;13.328;2023-03-19T02:07:36;21.60;;;15.82;;
2874;SDS011;1445;52.600;13.328;2023-03-19T02:10:05;23.52;;;16.05;;
2874;SDS011;1445;52.600;13.328;2023-03-19T02:12:33;21.77;;;15.52;;
2874;SDS011;1445;52.600;13.328;2023-03-19T02:14:59;21.08;;;16.08;;
2874;SDS011;1445;52.600;13.328;2023-03-19T02:17:25;26.27;;;16.92;;
2874;SDS011;1445;52.600;13.328;2023-03-19T02:19:55;22.65;;;16.05;;
2874;SDS011;1445;52.600;13.328;2023-03-19T02:22:32;44.15;;;26.52;;
2874;SDS011;1445;52.600;13.328;2023-03-19T02:27:37;30.98;;;20.35;;
2874;SDS011;1445;52.600;13.328;2023-03-19T02:32:55;28.60;;;19.02;;
2874;SDS011;1445;52.600;13.328;2023-03-19T02:35:20;33.13;;;21.30;;
2874;SDS011;1445;52.600;13.328;2023-03-19T02:37:46;24.50;;;16.42;;
2874;SDS011;1445;52.600;13.328;2023-03-19T02:40:17;28.85;;;19.85;;
2874;SDS011;1445;52.600;13.328;2023-03-19T02:42:48;18.70;;;13.65;;
2874;SDS011;1445;52.600;13.328;2023-03-19T02:45:14;18.08;;;13.55;;
2874;SDS011;1445;52.600;13.328;2023-03-19T02:47:40;19.58;;;13.82;;
2874;SDS011;1445;52.600;13.328;2023-03-19T02:50:06;18.80;;;14.05;;
2874;SDS011;1445;52.600;13.328;2023-03-19T02:52:32;20.05;;;14.52;;
2874;SDS011;1445;52.600;13.328;2023-03-19T02:54:57;21.63;;;14.52;;
2874;SDS011;1445;52.600;13.328;2023-03-19T02:57:23;20.13;;;14.48;;
2874;SDS011;1445;52.600;13.328;2023-03-19T02:59:48;21.30;;;14.80;;
2874;SDS011;1445;52.600;13.328;2023-03-19T03:02:14;19.48;;;13.30;;
2874;SDS011;1445;52.600;13.328;2023-03-19T03:04:39;18.15;;;13.55;;
2874;SDS011;1445;52.600;13.328;2023-03-19T03:07:05;18.65;;;13.40;;
2874;SDS011;1445;52.600;13.328;2023-03-19T03:09:31;18.67;;;13.45;;
2874;SDS011;1445;52.600;13.328;2023-03-19T03:11:56;19.85;;;13.00;;
2874;SDS011;1445;52.600;13.328;2023-03-19T03:14:22;18.17;;;13.43;;
2874;SDS011;1445;52.600;13.328;2023-03-19T03:16:47;18.00;;;12.65;;
2874;SDS011;1445;52.600;13.328;2023-03-19T03:19:12;20.80;;;12.43;;
2874;SDS011;1445;52.600;13.328;2023-03-19T03:21:38;16.55;;;12.82;;
2874;SDS011;1445;52.600;13.328;2023-03-19T03:24:03;17.88;;;12.77;;
2874;SDS011;1445;52.600;13.328;2023-03-19T03:26:29;14.95;;;11.77;;
2874;SDS011;1445;52.600;13.328;2023-03-19T03:28:55;19.17;;;12.77;;
2874;SDS011;1445;52.600;13.328;2023-03-19T03:31:20;15.35;;;11.68;;
2874;SDS011;1445;52.600;13.328;2023-03-19T03:33:46;18.38;;;11.88;;
2874;SDS011;1445;52.600;13.328;2023-03-19T03:36:12;20.67;;;13.57;;
2874;SDS011;1445;52.600;13.328;2023-03-19T03:38:38;19.90;;;13.55;;
2874;SDS011;1445;52.600;13.328;2023-03-19T03:41:04;17.83;;;13.15;;
2874;SDS011;1445;52.600;13.328;2023-03-19T03:43:29;18.08;;;12.48;;
2874;SDS011;1445;52.600;13.328;2023-03-19T03:45:55;20.55;;;14.48;;
2874;SDS011;1445;52.600;13.328;2023-03-19T03:48:20;18.95;;;13.45;;
2874;SDS011;1445;52.600;13.328;2023-03-19T03:50:46;16.58;;;13.02;;
2874;SDS011;1445;52.600;13.328;2023-03-19T03:53:12;20.10;;;13.10;;
2874;SDS011;1445;52.600;13.328;2023-03-19T03:55:38;19.20;;;13.57;;
2874;SDS011;1445;52.600;13.328;2023-03-19T03:58:04;19.13;;;13.48;;
2874;SDS011;1445;52.600;13.328;2023-03-19T04:00:29;21.50;;;13.55;;
2874;SDS011;1445;52.600;13.328;2023-03-19T04:02:55;19.70;;;13.20;;
2874;SDS011;1445;52.600;13.328;2023-03-19T04:05:20;18.15;;;12.98;;
2874;SDS011;1445;52.600;13.328;2023-03-19T04:07:46;20.95;;;14.65;;
2874;SDS011;1445;52.600;13.328;2023-03-19T04:10:12;18.55;;;14.10;;
2874;SDS011;1445;52.600;13.328;2023-03-19T04:12:38;17.58;;;13.27;;
2874;SDS011;1445;52.600;13.328;2023-03-19T04:15:05;18.58;;;14.07;;
2874;SDS011;1445;52.600;13.328;2023-03-19T04:17:33;16.88;;;12.80;;
2874;SDS011;1445;52.600;13.328;2023-03-19T04:19:59;19.85;;;13.65;;
2874;SDS011;1445;52.600;13.328;2023-03-19T04:22:26;19.25;;;13.48;;
2874;SDS011;1445;52.600;13.328;2023-03-19T04:24:51;18.95;;;13.15;;
2874;SDS011;1445;52.600;13.328;2023-03-19T04:27:17;20.98;;;13.65;;
2874;SDS011;1445;52.600;13.328;2023-03-19T04:29:42;18.92;;;13.70;;
2874;SDS011;1445;52.600;13.328;2023-03-19T04:32:08;18.50;;;13.48;;
2874;SDS011;1445;52.600;13.328;2023-03-19T04:34:33;18.10;;;13.40;;
2874;SDS011;1445;52.600;13.328;2023-03-19T04:36:59;22.33;;;13.50;;
2874;SDS011;1445;52.600;13.328;2023-03-19T04:39:24;19.15;;;13.55;;
2874;SDS011;1445;52.600;13.328;2023-03-19T04:41:50;18.55;;;13.27;;
2874;SDS011;1445;52.600;13.328;2023-03-19T04:44:15;18.58;;;12.70;;
2874;SDS011;1445;52.600;13.328;2023-03-19T04:46:41;21.90;;;14.07;;
2874;SDS011;1445;52.600;13.328;2023-03-19T04:49:09;21.02;;;13.63;;
2874;SDS011;1445;52.600;13.328;2023-03-19T04:51:34;18.98;;;12.95;;
2874;SDS011;1445;52.600;13.328;2023-03-19T04:54:00;19.15;;;13.65;;
2874;SDS011;1445;52.600;13.328;2023-03-19T04:56:25;17.23;;;12.73;;
2874;SDS011;1445;52.600;13.328;2023-03-19T04:58:51;18.65;;;13.80;;
2874;SDS011;1445;52.600;13.328;2023-03-19T05:01:17;16.05;;;13.55;;
2874;SDS011;1445;52.600;13.328;2023-03-19T05:03:43;19.40;;;13.20;;
2874;SDS011;1445;52.600;13.328;2023-03-19T05:06:08;21.48;;;13.13;;
2874;SDS011;1445;52.600;13.328;2023-03-19T05:08:34;19.13;;;13.52;;
2874;SDS011;1445;52.600;13.328;2023-03-19T05:11:00;22.15;;;13.60;;
2874;SDS011;1445;52.600;13.328;2023-03-19T05:13:25;21.48;;;13.90;;
2874;SDS011;1445;52.600;13.328;2023-03-19T05:15:52;21.75;;;13.85;;
2874;SDS011;1445;52.600;13.328;2023-03-19T05:18:19;20.48;;;13.95;;
2874;SDS011;1445;52.600;13.328;2023-03-19T05:20:44;20.45;;;13.85;;
2874;SDS011;1445;52.600;13.328;2023-03-19T05:23:10;21.90;;;15.65;;
2874;SDS011;1445;52.600;13.328;2023-03-19T05:25:35;19.92;;;14.25;;
2874;SDS011;1445;52.600;13.328;2023-03-19T05:28:01;18.67;;;13.90;;
2874;SDS011;1445;52.600;13.328;2023-03-19T05:30:27;20.27;;;14.60;;
2874;SDS011;1445;52.600;13.328;2023-03-19T05:32:54;21.80;;;15.45;;
2874;SDS011;1445;52.600;13.328;2023-03-19T05:35:22;24.30;;;15.25;;
2874;SDS011;1445;52.600;13.328;2023-03-19T05:37:48;23.83;;;16.10;;
2874;SDS011;1445;52.600;13.328;2023-03-19T05:40:14;22.17;;;14.20;;
2874;SDS011;1445;52.600;13.328;2023-03-19T05:42:40;21.05;;;15.10;;
2874;SDS011;1445;52.600;13.328;2023-03-19T05:45:06;28.48;;;16.75;;
2874;SDS011;1445;52.600;13.328;2023-03-19T05:47:32;23.33;;;15.70;;
2874;SDS011;1445;52.600;13.328;2023-03-19T05:49:58;24.52;;;16.63;;
2874;SDS011;1445;52.600;13.328;2023-03-19T05:52:24;26.27;;;16.85;;
2874;SDS011;1445;52.600;13.328;2023-03-19T05:54:50;21.27;;;15.80;;
2874;SDS011;1445;52.600;13.328;2023-03-19T05:57:15;25.95;;;17.33;;
2874;SDS011;1445;52.600;13.328;2023-03-19T05:59:41;26.88;;;16.58;;
2874;SDS011;1445;52.600;13.328;2023-03-19T06:02:07;24.25;;;15.93;;
2874;SDS011;1445;52.600;13.328;2023-03-19T06:04:32;23.00;;;16.92;;
2874;SDS011;1445;52.600;13.328;2023-03-19T06:06:58;25.48;;;16.10;;
2874;SDS011;1445;52.600;13.328;2023-03-19T06:09:23;22.70;;;15.65;;
2874;SDS011;1445;52.600;13.328;2023-03-19T06:11:49;22.13;;;15.18;;
2874;SDS011;1445;52.600;13.328;2023-03-19T06:14:14;26.50;;;14.95;;
2874;SDS011;1445;52.600;13.328;2023-03-19T06:16:40;19.50;;;13.73;;
2874;SDS011;1445;52.600;13.328;2023-03-19T06:19:05;24.15;;;15.63;;
2874;SDS011;1445;52.600;13.328;2023-03-19T06:21:31;28.23;;;19.77;;
2874;SDS011;1445;52.600;13.328;2023-03-19T06:23:56;49.58;;;27.27;;
2874;SDS011;1445;52.600;13.328;2023-03-19T06:26:22;51.90;;;29.20;;
2874;SDS011;1445;52.600;13.328;2023-03-19T06:28:49;28.50;;;18.13;;
2874;SDS011;1445;52.600;13.328;2023-03-19T06:31:14;45.53;;;25.13;;
2874;SDS011;1445;52.600;13.328;2023-03-19T06:33:40;28.75;;;18.88;;
2874;SDS011;1445;52.600;13.328;2023-03-19T06:36:06;36.83;;;21.88;;
2874;SDS011;1445;52.600;13.328;2023-03-19T06:38:31;32.67;;;20.85;;
2874;SDS011;1445;52.600;13.328;2023-03-19T06:40:57;48.10;;;28.58;;
2874;SDS011;1445;52.600;13.328;2023-03-19T06:43:22;37.60;;;24.60;;
2874;SDS011;1445;52.600;13.328;2023-03-19T06:45:48;22.98;;;17.30;;
2874;SDS011;1445;52.600;13.328;2023-03-19T06:48:13;22.70;;;17.30;;
2874;SDS011;1445;52.600;13.328;2023-03-19T06:50:39;18.77;;;13.35;;
2874;SDS011;1445;52.600;13.328;2023-03-19T06:53:05;21.33;;;15.00;;
2874;SDS011;1445;52.600;13.328;2023-03-19T06:55:31;22.45;;;15.90;;
2874;SDS011;1445;52.600;13.328;2023-03-19T06:57:57;21.23;;;15.23;;
2874;SDS011;1445;52.600;13.328;2023-03-19T07:00:22;26.90;;;18.45;;
2874;SDS011;1445;52.600;13.328;2023-03-19T07:02:48;30.40;;;21.98;;
2874;SDS011;1445;52.600;13.328;2023-03-19T07:05:14;23.63;;;17.30;;
2874;SDS011;1445;52.600;13.328;2023-03-19T07:07:40;22.25;;;15.48;;
2874;SDS011;1445;52.600;13.328;2023-03-19T07:10:05;25.90;;;16.00;;
2874;SDS011;1445;52.600;13.328;2023-03-19T07:12:32;23.13;;;16.85;;
2874;SDS011;1445;52.600;13.328;2023-03-19T07:14:58;24.85;;;17.23;;
2874;SDS011;1445;52.600;13.328;2023-03-19T07:17:24;25.88;;;17.95;;
2874;SDS011;1445;52.600;13.328;2023-03-19T07:19:49;36.40;;;20.00;;
2874;SDS011;1445;52.600;13.328;2023-03-19T07:22:15;42.90;;;25.20;;
2874;SDS011;1445;52.600;13.328;2023-03-19T07:24:41;32.83;;;21.55;;
2874;SDS011;1445;52.600;13.328;2023-03-19T07:27:06;37.03;;;23.63;;
2874;SDS011;1445;52.600;13.328;2023-03-19T07:29:32;31.80;;;21.02;;
2874;SDS011;1445;52.600;13.328;2023-03-19T07:31:57;33.10;;;21.73;;
2874;SDS011;1445;52.600;13.328;2023-03-19T07:34:23;34.85;;;20.38;;
2874;SDS011;1445;52.600;13.328;2023-03-19T07:36:48;30.05;;;19.77;;
2874;SDS011;1445;52.600;13.328;2023-03-19T07:39:15;33.28;;;21.70;;
2874;SDS011;1445;52.600;13.328;2023-03-19T07:41:40;29.00;;;20.48;;
2874;SDS011;1445;52.600;13.328;2023-03-19T07:44:09;32.58;;;20.65;;
2874;SDS011;1445;52.600;13.328;2023-03-19T07:46:35;31.90;;;20.27;;
2874;SDS011;1445;52.600;13.328;2023-03-19T07:49:01;29.88;;;20.65;;
2874;SDS011;1445;52.600;13.328;2023-03-19T07:51:27;28.63;;;19.17;;
2874;SDS011;1445;52.600;13.328;2023-03-19T07:53:52;24.92;;;18.88;;
2874;SDS011;1445;52.600;13.328;2023-03-19T07:56:18;24.95;;;17.30;;
2874;SDS011;1445;52.600;13.328;2023-03-19T07:58:43;22.95;;;16.25;;
2874;SDS011;1445;52.600;13.328;2023-03-19T08:01:08;22.50;;;16.30;;
2874;SDS011;1445;52.600;13.328;2023-03-19T08:03:34;21.10;;;15.70;;
2874;SDS011;1445;52.600;13.328;2023-03-19T08:06:00;22.88;;;16.02;;
2874;SDS011;1445;52.600;13.328;2023-03-19T08:08:25;23.00;;;16.08;;
2874;SDS011;1445;52.600;13.328;2023-03-19T08:10:54;21.13;;;13.85;;
2874;SDS011;1445;52.600;13.328;2023-03-19T08:13:20;20.17;;;14.70;;
2874;SDS011;1445;52.600;13.328;2023-03-19T08:15:47;20.25;;;14.05;;
2874;SDS011;1445;52.600;13.328;2023-03-19T08:18:13;19.70;;;12.85;;
2874;SDS011;1445;52.600;13.328;2023-03-19T08:20:39;19.98;;;14.77;;
2874;SDS011;1445;52.600;13.328;2023-03-19T08:23:04;19.23;;;14.05;;
2874;SDS011;1445;52.600;13.328;2023-03-19T08:25:30;19.98;;;14.10;;
2874;SDS011;1445;52.600;13.328;2023-03-19T08:27:57;22.42;;;15.50;;
2874;SDS011;1445;52.600;13.328;2023-03-19T08:30:23;24.42;;;16.77;;
2874;SDS011;1445;52.600;13.328;2023-03-19T08:32:49;25.10;;;18.10;;
2874;SDS011;1445;52.600;13.328;2023-03-19T08:35:14;26.65;;;18.52;;
2874;SDS011;1445;52.600;13.328;2023-03-19T08:37:40;29.33;;;19.27;;
2874;SDS011;1445;52.600;13.328;2023-03-19T08:40:06;29.38;;;20.38;;
2874;SDS011;1445;52.600;13.328;2023-03-19T08:42:32;35.45;;;22.83;;
2874;SDS011;1445;52.600;13.328;2023-03-19T08:44:58;35.70;;;24.58;;
2874;SDS011;1445;52.600;13.328;2023-03-19T08:47:24;37.58;;;25.13;;
2874;SDS011;1445;52.600;13.328;2023-03-19T08:49:50;33.70;;;22.48;;
2874;SDS011;1445;52.600;13.328;2023-03-19T08:52:16;31.50;;;22.58;;
2874;SDS011;1445;52.600;13.328;2023-03-19T08:54:42;31.65;;;21.45;;
2874;SDS011;1445;52.600;13.328;2023-03-19T08:57:08;30.85;;;22.38;;
2874;SDS011;1445;52.600;13.328;2023-03-19T08:59:33;33.22;;;22.30;;
2874;SDS011;1445;52.600;13.328;2023-03-19T09:01:59;33.55;;;23.10;;
2874;SDS011;1445;52.600;13.328;2023-03-19T09:04:25;36.60;;;22.85;;
2874;SDS011;1445;52.600;13.328;2023-03-19T09:06:51;30.58;;;22.58;;
2874;SDS011;1445;52.600;13.328;2023-03-19T09:09:17;30.50;;;21.33;;
2874;SDS011;1445;52.600;13.328;2023-03-19T09:11:44;30.48;;;22.05;;
2874;SDS011;1445;52.600;13.328;2023-03-19T09:14:10;30.73;;;21.77;;
2874;SDS011;1445;52.600;13.328;2023-03-19T09:16:36;30.40;;;21.63;;
2874;SDS011;1445;52.600;13.328;2023-03-19T09:19:01;34.08;;;22.25;;
2874;SDS011;1445;52.600;13.328;2023-03-19T09:21:27;32.55;;;21.05;;
2874;SDS011;1445;52.600;13.328;2023-03-19T09:23:52;31.02;;;22.55;;
2874;SDS011;1445;52.600;13.328;2023-03-19T09:26:18;29.38;;;21.95;;
2874;SDS011;1445;52.600;13.328;2023-03-19T09:28:43;29.45;;;20.90;;
2874;SDS011;1445;52.600;13.328;2023-03-19T09:31:09;27.92;;;18.67;;
2874;SDS011;1445;52.600;13.328;2023-03-19T09:33:35;27.30;;;19.58;;
2874;SDS011;1445;52.600;13.328;2023-03-19T09:36:01;28.30;;;19.67;;
2874;SDS011;1445;52.600;13.328;2023-03-19T09:38:27;25.80;;;18.40;;
2874;SDS011;1445;52.600;13.328;2023-03-19T09:49:10;22.73;;;15.65;;
2874;SDS011;1445;52.600;13.328;2023-03-19T09:54:59;19.13;;;14.18;;
2874;SDS011;1445;52.600;13.328;2023-03-19T09:57:10;16.88;;;12.80;;
2874;SDS011;1445;52.600;13.328;2023-03-19T09:59:37;13.15;;;11.35;;
2874;SDS011;1445;52.600;13.328;2023-03-19T10:15:34;9.80;;;7.80;;
2874;SDS011;1445;52.600;13.328;2023-03-19T10:20:33;11.40;;;8.55;;
2874;SDS011;1445;52.600;13.328;2023-03-19T10:26:04;11.20;;;8.68;;
2874;SDS011;1445;52.600;13.328;2023-03-19T10:28:33;13.27;;;9.02;;
2874;SDS011;1445;52.600;13.328;2023-03-19T10:31:03;12.18;;;9.75;;
2874;SDS011;1445;52.600;13.328;2023-03-19T10:33:43;12.55;;;9.45;;
2874;SDS011;1445;52.600;13.328;2023-03-19T10:36:14;12.85;;;9.73;;
2874;SDS011;1445;52.600;13.328;2023-03-19T10:38:42;13.52;;;10.48;;
2874;SDS011;1445;52.600;13.328;2023-03-19T10:41:23;13.75;;;11.30;;
2874;SDS011;1445;52.600;13.328;2023-03-19T10:43:57;13.15;;;9.98;;
2874;SDS011;1445;52.600;13.328;2023-03-19T10:46:26;16.42;;;10.52;;
2874;SDS011;1445;52.600;13.328;2023-03-19T10:48:51;11.10;;;9.43;;
2874;SDS011;1445;52.600;13.328;2023-03-19T10:51:20;12.95;;;10.35;;
2874;SDS011;1445;52.600;13.328;2023-03-19T10:53:48;14.02;;;10.82;;
2874;SDS011;1445;52.600;13.328;2023-03-19T10:56:21;12.70;;;10.80;;
2874;SDS011;1445;52.600;13.328;2023-03-19T10:59:00;15.00;;;10.75;;
2874;SDS011;1445;52.600;13.328;2023-03-19T11:01:31;14.55;;;11.23;;
2874;SDS011;1445;52.600;13.328;2023-03-19T11:04:00;11.98;;;10.30;;
2874;SDS011;1445;52.600;13.328;2023-03-19T11:14:34;15.55;;;11.80;;
2874;SDS011;1445;52.600;13.328;2023-03-19T11:17:03;14.65;;;10.93;;
2874;SDS011;1445;52.600;13.328;2023-03-19T11:19:30;15.00;;;11.95;;
2874;SDS011;1445;52.600;13.328;2023-03-19T11:24:37;14.50;;;11.15;;
2874;SDS011;1445;52.600;13.328;2023-03-19T11:27:05;15.63;;;12.48;;
2874;SDS011;1445;52.600;13.328;2023-03-19T11:29:32;15.10;;;11.73;;
2874;SDS011;1445;52.600;13.328;2023-03-19T11:32:11;13.63;;;10.73;;
2874;SDS011;1445;52.600;13.328;2023-03-19T11:34:44;16.83;;;11.45;;
2874;SDS011;1445;52.600;13.328;2023-03-19T11:40:13;16.50;;;12.10;;
2874;SDS011;1445;52.600;13.328;2023-03-19T12:13:18;11.40;;;8.13;;
2874;SDS011;1445;52.600;13.328;2023-03-19T12:15:59;8.90;;;7.53;;
2874;SDS011;1445;52.600;13.328;2023-03-19T12:21:17;12.27;;;8.13;;
2874;SDS011;1445;52.600;13.328;2023-03-19T12:28:55;10.20;;;7.97;;
2874;SDS011;1445;52.600;13.328;2023-03-19T12:31:39;9.25;;;7.55;;
2874;SDS011;1445;52.600;13.328;2023-03-19T12:34:22;9.25;;;7.35;;
2874;SDS011;1445;52.600;13.328;2023-03-19T12:37:37;8.18;;;6.70;;
2874;SDS011;1445;52.600;13.328;2023-03-19T12:39:39;8.43;;;6.95;;
2874;SDS011;1445;52.600;13.328;2023-03-19T12:42:13;8.52;;;6.50;;
2874;SDS011;1445;52.600;13.328;2023-03-19T12:44:45;7.00;;;5.75;;
2874;SDS011;1445;52.600;13.328;2023-03-19T12:47:16;7.57;;;6.50;;
2874;SDS011;1445;52.600;13.328;2023-03-19T12:49:57;7.07;;;6.20;;
2874;SDS011;1445;52.600;13.328;2023-03-19T12:52:39;6.22;;;5.43;;
2874;SDS011;1445;52.600;13.328;2023-03-19T12:57:39;6.20;;;5.60;;
2874;SDS011;1445;52.600;13.328;2023-03-19T13:03:11;6.63;;;5.25;;
2874;SDS011;1445;52.600;13.328;2023-03-19T13:06:16;6.75;;;5.72;;
2874;SDS011;1445;52.600;13.328;2023-03-19T13:14:16;6.35;;;5.75;;
2874;SDS011;1445;52.600;13.328;2023-03-19T13:19:45;7.90;;;5.82;;
2874;SDS011;1445;52.600;13.328;2023-03-19T13:22:13;6.60;;;5.60;;
2874;SDS011;1445;52.600;13.328;2023-03-19T13:24:43;8.18;;;6.32;;
2874;SDS011;1445;52.600;13.328;2023-03-19T13:27:12;6.78;;;6.07;;
2874;SDS011;1445;52.600;13.328;2023-03-19T13:30:01;7.97;;;6.68;;
2874;SDS011;1445;52.600;13.328;2023-03-19T13:32:42;7.93;;;6.55;;
2874;SDS011;1445;52.600;13.328;2023-03-19T13:37:54;8.02;;;6.10;;
2874;SDS011;1445;52.600;13.328;2023-03-19T13:40:44;7.30;;;6.50;;
2874;SDS011;1445;52.600;13.328;2023-03-19T13:43:56;8.00;;;6.50;;
2874;SDS011;1445;52.600;13.328;2023-03-19T13:50:55;8.63;;;6.50;;
2874;SDS011;1445;52.600;13.328;2023-03-19T13:55:57;7.82;;;6.53;;
2874;SDS011;1445;52.600;13.328;2023-03-19T13:58:23;8.90;;;6.72;;
2874;SDS011;1445;52.600;13.328;2023-03-19T14:01:10;9.05;;;6.70;;
2874;SDS011;1445;52.600;13.328;2023-03-19T14:03:57;11.52;;;9.82;;
2874;SDS011;1445;52.600;13.328;2023-03-19T14:06:42;8.55;;;6.75;;
2874;SDS011;1445;52.600;13.328;2023-03-19T14:09:30;8.02;;;6.45;;
2874;SDS011;1445;52.600;13.328;2023-03-19T14:14:48;16.73;;;14.88;;
2874;SDS011;1445;52.600;13.328;2023-03-19T14:27:47;8.50;;;6.70;;
2874;SDS011;1445;52.600;13.328;2023-03-19T14:30:31;10.02;;;6.93;;
2874;SDS011;1445;52.600;13.328;2023-03-19T14:33:02;7.90;;;6.35;;
2874;SDS011;1445;52.600;13.328;2023-03-19T14:35:35;7.60;;;6.07;;
2874;SDS011;1445;52.600;13.328;2023-03-19T14:38:17;7.95;;;6.13;;
2874;SDS011;1445;52.600;13.328;2023-03-19T14:41:09;7.65;;;6.40;;
2874;SDS011;1445;52.600;13.328;2023-03-19T14:55:00;8.30;;;6.38;;
2874;SDS011;1445;52.600;13.328;2023-03-19T14:57:33;7.25;;;6.13;;
2874;SDS011;1445;52.600;13.328;2023-03-19T14:59:59;7.15;;;6.45;;
2874;SDS011;1445;52.600;13.328;2023-03-19T15:04:54;7.75;;;6.53;;
2874;SDS011;1445;52.600;13.328;2023-03-19T15:07:23;8.68;;;5.75;;
2874;SDS011;1445;52.600;13.328;2023-03-19T15:09:53;7.50;;;6.40;;
2874;SDS011;1445;52.600;13.328;2023-03-19T15:17:34;8.75;;;7.00;;
2874;SDS011;1445;52.600;13.328;2023-03-19T15:20:01;7.53;;;6.70;;
2874;SDS011;1445;52.600;13.328;2023-03-19T15:22:29;7.28;;;6.50;;
2874;SDS011;1445;52.600;13.328;2023-03-19T15:25:05;8.25;;;6.00;;
2874;SDS011;1445;52.600;13.328;2023-03-19T15:27:33;7.60;;;6.30;;
2874;SDS011;1445;52.600;13.328;2023-03-19T15:29:58;8.10;;;6.22;;
2874;SDS011;1445;52.600;13.328;2023-03-19T15:34:56;7.72;;;5.70;;
2874;SDS011;1445;52.600;13.328;2023-03-19T15:37:21;6.82;;;5.47;;
2874;SDS011;1445;52.600;13.328;2023-03-19T15:39:48;8.88;;;6.13;;
2874;SDS011;1445;52.600;13.328;2023-03-19T15:42:18;6.90;;;5.90;;
2874;SDS011;1445;52.600;13.328;2023-03-19T15:44:47;6.93;;;6.15;;
2874;SDS011;1445;52.600;13.328;2023-03-19T15:47:18;8.02;;;6.18;;
2874;SDS011;1445;52.600;13.328;2023-03-19T15:49:55;8.57;;;6.10;;
2874;SDS011;1445;52.600;13.328;2023-03-19T15:52:25;9.65;;;5.97;;
2874;SDS011;1445;52.600;13.328;2023-03-19T15:54:55;9.20;;;5.97;;
2874;SDS011;1445;52.600;13.328;2023-03-19T15:57:21;7.38;;;6.10;;
2874;SDS011;1445;52.600;13.328;2023-03-19T15:59:49;8.57;;;6.53;;
2874;SDS011;1445;52.600;13.328;2023-03-19T16:02:22;8.98;;;6.22;;
2874;SDS011;1445;52.600;13.328;2023-03-19T16:04:51;7.05;;;5.95;;
2874;SDS011;1445;52.600;13.328;2023-03-19T16:07:21;9.13;;;6.43;;
2874;SDS011;1445;52.600;13.328;2023-03-19T16:09:48;7.95;;;6.22;;
2874;SDS011;1445;52.600;13.328;2023-03-19T16:15:24;8.10;;;6.57;;
2874;SDS011;1445;52.600;13.328;2023-03-19T16:20:41;6.85;;;5.63;;
2874;SDS011;1445;52.600;13.328;2023-03-19T16:23:16;8.23;;;5.75;;
2874;SDS011;1445;52.600;13.328;2023-03-19T16:25:45;8.90;;;5.70;;
2874;SDS011;1445;52.600;13.328;2023-03-19T16:28:18;8.20;;;5.97;;
2874;SDS011;1445;52.600;13.328;2023-03-19T16:30:48;7.68;;;5.97;;
2874;SDS011;1445;52.600;13.328;2023-03-19T16:33:15;8.07;;;5.95;;
2874;SDS011;1445;52.600;13.328;2023-03-19T16:35:40;7.00;;;5.65;;
2874;SDS011;1445;52.600;13.328;2023-03-19T16:38:12;7.95;;;5.80;;
2874;SDS011;1445;52.600;13.328;2023-03-19T16:43:21;6.68;;;5.57;;
2874;SDS011;1445;52.600;13.328;2023-03-19T16:45:51;6.78;;;6.07;;
2874;SDS011;1445;52.600;13.328;2023-03-19T16:48:28;8.95;;;6.20;;
2874;SDS011;1445;52.600;13.328;2023-03-19T16:50:54;7.30;;;5.88;;
2874;SDS011;1445;52.600;13.328;2023-03-19T16:53:21;7.80;;;5.63;;
2874;SDS011;1445;52.600;13.328;2023-03-19T16:55:50;6.85;;;5.88;;
2874;SDS011;1445;52.600;13.328;2023-03-19T16:58:17;8.07;;;5.70;;
2874;SDS011;1445;52.600;13.328;2023-03-19T17:00:53;8.45;;;6.20;;
2874;SDS011;1445;52.600;13.328;2023-03-19T17:03:19;7.63;;;5.90;;
2874;SDS011;1445;52.600;13.328;2023-03-19T17:05:45;9.45;;;6.30;;
2874;SDS011;1445;52.600;13.328;2023-03-19T17:08:11;7.78;;;6.00;;
2874;SDS011;1445;52.600;13.328;2023-03-19T17:10:39;7.78;;;6.80;;
2874;SDS011;1445;52.600;13.328;2023-03-19T17:13:08;9.15;;;6.22;;
2874;SDS011;1445;52.600;13.328;2023-03-19T17:15:40;7.70;;;6.05;;
2874;SDS011;1445;52.600;13.328;2023-03-19T17:18:09;7.38;;;6.15;;
2874;SDS011;1445;52.600;13.328;2023-03-19T17:20:41;7.82;;;5.97;;
2874;SDS011;1445;52.600;13.328;2023-03-19T17:23:15;8.70;;;6.72;;